Orbital elements of COSMOS 2251 DEB
| Launched | 15 June 1993 |
| Flight ended | – |
| Launch site | Plesetsk Missile and Space Complex, Russia |
| Owner | Commonwealth of Independent States (former USSR) |
| NORAD ID | 33986 |
| Date fetched |
Epoch osculation |
Inc. [°] |
Ecc. | RA asc node [hr] |
Arg Peri. [°] |
Mean anom [°] |
Mean motion [rev/day] |
Abs. mag |
| Date fetched |
Epoch osculation |
Inc. [°] |
Ecc. | RA asc node [hr] |
Arg Peri. [°] |
Mean anom [°] |
Mean motion [rev/day] |
Abs. mag |
| 2026 May 05 17:57 | 2026 May 05 04:32:52 | 74.0377 | 0.00405 | 2.4039 | 77.8983 | 71.1618 | 14.43908 | – |
| 2026 May 04 17:57 | 2026 Apr 30 13:15:13 | 74.0366 | 0.00403 | 2.9787 | 87.8329 | 71.1618 | 14.43908 | – |
| 2026 May 03 17:57 | 2026 Apr 30 13:15:13 | 74.0366 | 0.00403 | 2.9787 | 87.8329 | 71.1618 | 14.43908 | – |
| 2026 May 02 17:57 | 2026 Apr 30 13:15:13 | 74.0366 | 0.00403 | 2.9787 | 87.8329 | 71.1618 | 14.43908 | – |
| 2026 May 01 17:56 | 2026 Apr 30 13:15:13 | 74.0366 | 0.00403 | 2.9787 | 87.8329 | 71.1618 | 14.43908 | – |
| 2026 Apr 30 17:56 | 2026 Apr 30 13:15:13 | 74.0366 | 0.00403 | 2.9787 | 87.8329 | 71.1618 | 14.43908 | – |
| 2026 Apr 29 17:57 | 2026 Apr 23 22:49:46 | 74.0359 | 0.00400 | 3.7969 | 102.0619 | 71.1618 | 14.43908 | – |
| 2026 Apr 28 17:56 | 2026 Apr 23 22:49:46 | 74.0359 | 0.00400 | 3.7969 | 102.0619 | 71.1618 | 14.43908 | – |
| 2026 Apr 27 17:58 | 2026 Apr 23 22:49:46 | 74.0359 | 0.00400 | 3.7969 | 102.0619 | 71.1618 | 14.43908 | – |
| 2026 Apr 26 17:58 | 2026 Apr 23 22:49:46 | 74.0359 | 0.00400 | 3.7969 | 102.0619 | 71.1618 | 14.43908 | – |
| 2026 Apr 25 17:58 | 2026 Apr 23 22:49:46 | 74.0359 | 0.00400 | 3.7969 | 102.0619 | 71.1618 | 14.43908 | – |
| 2026 Apr 24 17:59 | 2026 Apr 23 22:49:46 | 74.0359 | 0.00400 | 3.7969 | 102.0619 | 71.1618 | 14.43908 | – |
| 2026 Apr 23 17:57 | 2026 Apr 19 07:45:38 | 74.0350 | 0.00399 | 4.3705 | 112.1228 | 71.1618 | 14.43908 | – |
| 2026 Apr 22 17:57 | 2026 Apr 19 07:45:38 | 74.0350 | 0.00399 | 4.3705 | 112.1228 | 71.1618 | 14.43908 | – |
| 2026 Apr 21 17:57 | 2026 Apr 19 07:45:38 | 74.0350 | 0.00399 | 4.3705 | 112.1228 | 71.1618 | 14.43908 | – |
| 2026 Apr 20 17:57 | 2026 Apr 19 07:45:38 | 74.0350 | 0.00399 | 4.3705 | 112.1228 | 71.1618 | 14.43908 | – |
| 2026 Apr 19 17:58 | 2026 Apr 19 07:45:38 | 74.0350 | 0.00399 | 4.3705 | 112.1228 | 71.1618 | 14.43908 | – |
| 2026 Apr 18 17:56 | 2026 Apr 13 04:49:02 | 74.0342 | 0.00399 | 5.1295 | 125.5011 | 71.1618 | 14.43908 | – |
| 2026 Apr 16 17:57 | 2026 Apr 13 04:49:02 | 74.0342 | 0.00399 | 5.1295 | 125.5011 | 71.1618 | 14.43908 | – |
| 2026 Apr 14 17:57 | 2026 Apr 13 04:49:02 | 74.0342 | 0.00399 | 5.1295 | 125.5011 | 71.1618 | 14.43908 | – |
| 2026 Apr 13 17:57 | 2026 Apr 13 04:49:02 | 74.0342 | 0.00399 | 5.1295 | 125.5011 | 71.1618 | 14.43908 | – |
| 2026 Apr 12 17:57 | 2026 Apr 07 22:28:17 | 74.0346 | 0.00399 | 5.7821 | 136.9854 | 71.1618 | 14.43908 | – |
| 2026 Apr 11 17:57 | 2026 Apr 07 22:28:17 | 74.0346 | 0.00399 | 5.7821 | 136.9854 | 71.1618 | 14.43908 | – |
| 2026 Apr 10 17:58 | 2026 Apr 07 22:28:17 | 74.0346 | 0.00399 | 5.7821 | 136.9854 | 71.1618 | 14.43908 | – |
| 2026 Apr 09 18:01 | 2026 Apr 07 22:28:17 | 74.0346 | 0.00399 | 5.7821 | 136.9854 | 71.1618 | 14.43908 | – |
| 2026 Apr 08 17:57 | 2026 Apr 07 22:28:17 | 74.0346 | 0.00399 | 5.7821 | 136.9854 | 71.1618 | 14.43908 | – |